Terminal Aerodrome Forecast
Issued by NWS Grand Junction, CO

Current Version | Previous Version | Text Only | Print | Product List | Glossary On
Versions: 1 2 3 4 5 6 7 8 9 10 11 12 13 14 15 16
000
FTUS45 KGJT 251134 AAC
TAFGJT
TAF AMD
KGJT 251134Z 2512/2612 VRB03KT P6SM FEW200
     FM251900 24005KT P6SM BKN100
     FM260000 28005KT P6SM VCSH OVC080
     FM260600 VRB03KT P6SM BKN060=

USA.gov is the U.S. government's official web portal to all federal, state and local government web resources and services.